sensor_id;sensor_type;location;lat;lon;timestamp;temperature;humidity
13344;DHT22;6741;48.964;9.406;2023-03-23T00:01:08;9.70;99.90
13344;DHT22;6741;48.964;9.406;2023-03-23T00:03:38;9.70;99.90
13344;DHT22;6741;48.964;9.406;2023-03-23T00:06:06;9.70;99.90
13344;DHT22;6741;48.964;9.406;2023-03-23T00:08:36;9.60;99.90
13344;DHT22;6741;48.964;9.406;2023-03-23T00:11:10;9.60;99.90
13344;DHT22;6741;48.964;9.406;2023-03-23T00:13:40;9.70;99.90
13344;DHT22;6741;48.964;9.406;2023-03-23T00:16:07;9.70;99.90
13344;DHT22;6741;48.964;9.406;2023-03-23T00:18:43;9.70;99.90
13344;DHT22;6741;48.964;9.406;2023-03-23T00:21:10;9.80;99.90
13344;DHT22;6741;48.964;9.406;2023-03-23T00:23:39;9.80;99.90
13344;DHT22;6741;48.964;9.406;2023-03-23T00:26:06;9.80;99.90
13344;DHT22;6741;48.964;9.406;2023-03-23T00:28:33;9.80;99.90
13344;DHT22;6741;48.964;9.406;2023-03-23T00:31:02;9.90;99.90
13344;DHT22;6741;48.964;9.406;2023-03-23T00:33:31;9.80;99.90
13344;DHT22;6741;48.964;9.406;2023-03-23T00:36:04;9.90;99.90
13344;DHT22;6741;48.964;9.406;2023-03-23T00:38:31;9.90;99.90
13344;DHT22;6741;48.964;9.406;2023-03-23T00:40:59;9.90;99.90
13344;DHT22;6741;48.964;9.406;2023-03-23T00:43:28;10.00;99.90
13344;DHT22;6741;48.964;9.406;2023-03-23T00:45:56;10.10;99.90
13344;DHT22;6741;48.964;9.406;2023-03-23T00:48:28;10.10;99.90
13344;DHT22;6741;48.964;9.406;2023-03-23T00:50:55;10.20;99.90
13344;DHT22;6741;48.964;9.406;2023-03-23T00:53:22;10.20;99.90
13344;DHT22;6741;48.964;9.406;2023-03-23T00:55:50;10.20;99.90
13344;DHT22;6741;48.964;9.406;2023-03-23T00:58:18;10.30;99.90
13344;DHT22;6741;48.964;9.406;2023-03-23T01:00:45;10.30;99.90
13344;DHT22;6741;48.964;9.406;2023-03-23T01:03:12;10.40;99.90
13344;DHT22;6741;48.964;9.406;2023-03-23T01:05:43;10.50;99.90
13344;DHT22;6741;48.964;9.406;2023-03-23T01:08:13;10.50;99.90
13344;DHT22;6741;48.964;9.406;2023-03-23T01:10:41;10.60;99.90
13344;DHT22;6741;48.964;9.406;2023-03-23T01:13:08;10.70;99.90
13344;DHT22;6741;48.964;9.406;2023-03-23T01:15:37;10.80;99.90
13344;DHT22;6741;48.964;9.406;2023-03-23T01:18:04;10.90;99.90
13344;DHT22;6741;48.964;9.406;2023-03-23T01:20:31;11.00;99.90
13344;DHT22;6741;48.964;9.406;2023-03-23T01:22:59;11.20;99.90
13344;DHT22;6741;48.964;9.406;2023-03-23T01:25:27;11.30;99.90
13344;DHT22;6741;48.964;9.406;2023-03-23T01:27:54;11.40;99.90
13344;DHT22;6741;48.964;9.406;2023-03-23T01:30:22;11.50;99.90
13344;DHT22;6741;48.964;9.406;2023-03-23T01:32:50;11.80;99.90
13344;DHT22;6741;48.964;9.406;2023-03-23T01:35:18;11.80;99.90
13344;DHT22;6741;48.964;9.406;2023-03-23T01:37:45;11.60;99.90
13344;DHT22;6741;48.964;9.406;2023-03-23T01:40:13;11.40;99.90
13344;DHT22;6741;48.964;9.406;2023-03-23T01:42:41;11.30;99.90
13344;DHT22;6741;48.964;9.406;2023-03-23T01:45:30;11.40;99.90
13344;DHT22;6741;48.964;9.406;2023-03-23T01:48:06;11.60;99.90
13344;DHT22;6741;48.964;9.406;2023-03-23T01:50:37;11.80;99.90
13344;DHT22;6741;48.964;9.406;2023-03-23T01:53:07;11.80;99.90
13344;DHT22;6741;48.964;9.406;2023-03-23T01:55:36;11.90;99.90
13344;DHT22;6741;48.964;9.406;2023-03-23T01:58:05;12.00;99.90
13344;DHT22;6741;48.964;9.406;2023-03-23T02:00:33;12.00;99.90
13344;DHT22;6741;48.964;9.406;2023-03-23T02:03:00;11.90;99.90
13344;DHT22;6741;48.964;9.406;2023-03-23T02:05:32;11.80;99.90
13344;DHT22;6741;48.964;9.406;2023-03-23T02:08:02;11.70;99.90
13344;DHT22;6741;48.964;9.406;2023-03-23T02:10:31;11.70;99.90
13344;DHT22;6741;48.964;9.406;2023-03-23T02:12:59;11.50;99.90
13344;DHT22;6741;48.964;9.406;2023-03-23T02:15:33;11.30;99.90
13344;DHT22;6741;48.964;9.406;2023-03-23T02:18:09;11.30;99.90
13344;DHT22;6741;48.964;9.406;2023-03-23T02:26:56;11.10;99.90
13344;DHT22;6741;48.964;9.406;2023-03-23T02:29:51;11.00;99.90
13344;DHT22;6741;48.964;9.406;2023-03-23T02:32:45;11.00;99.90
13344;DHT22;6741;48.964;9.406;2023-03-23T02:35:19;11.00;99.90
13344;DHT22;6741;48.964;9.406;2023-03-23T02:37:50;11.00;99.90
13344;DHT22;6741;48.964;9.406;2023-03-23T02:40:20;10.90;99.90
13344;DHT22;6741;48.964;9.406;2023-03-23T02:42:50;11.00;99.90
13344;DHT22;6741;48.964;9.406;2023-03-23T02:45:19;11.00;99.90
13344;DHT22;6741;48.964;9.406;2023-03-23T02:47:49;11.00;99.90
13344;DHT22;6741;48.964;9.406;2023-03-23T02:50:20;11.00;99.90
13344;DHT22;6741;48.964;9.406;2023-03-23T02:52:49;10.80;99.90
13344;DHT22;6741;48.964;9.406;2023-03-23T02:55:18;10.80;99.90
13344;DHT22;6741;48.964;9.406;2023-03-23T02:57:46;10.70;99.90
13344;DHT22;6741;48.964;9.406;2023-03-23T03:00:16;10.70;99.90
13344;DHT22;6741;48.964;9.406;2023-03-23T03:02:44;10.70;99.90
13344;DHT22;6741;48.964;9.406;2023-03-23T03:05:22;10.70;99.90
13344;DHT22;6741;48.964;9.406;2023-03-23T03:08:01;10.70;99.90
13344;DHT22;6741;48.964;9.406;2023-03-23T03:10:37;10.80;99.90
13344;DHT22;6741;48.964;9.406;2023-03-23T03:13:13;10.90;99.90
13344;DHT22;6741;48.964;9.406;2023-03-23T03:15:44;11.00;99.90
13344;DHT22;6741;48.964;9.406;2023-03-23T03:18:15;11.20;99.90
13344;DHT22;6741;48.964;9.406;2023-03-23T03:20:46;11.50;99.90
13344;DHT22;6741;48.964;9.406;2023-03-23T03:23:15;11.60;99.90
13344;DHT22;6741;48.964;9.406;2023-03-23T03:25:44;11.60;99.90
13344;DHT22;6741;48.964;9.406;2023-03-23T03:28:15;11.50;99.90
13344;DHT22;6741;48.964;9.406;2023-03-23T03:30:43;11.40;99.90
13344;DHT22;6741;48.964;9.406;2023-03-23T03:33:12;11.30;99.90
13344;DHT22;6741;48.964;9.406;2023-03-23T03:35:40;11.30;99.90
13344;DHT22;6741;48.964;9.406;2023-03-23T03:38:10;11.20;99.90
13344;DHT22;6741;48.964;9.406;2023-03-23T03:40:38;11.20;99.90
13344;DHT22;6741;48.964;9.406;2023-03-23T03:43:06;11.20;99.90
13344;DHT22;6741;48.964;9.406;2023-03-23T03:45:33;11.30;99.90
13344;DHT22;6741;48.964;9.406;2023-03-23T03:48:01;11.40;99.90
13344;DHT22;6741;48.964;9.406;2023-03-23T03:50:28;11.60;99.90
13344;DHT22;6741;48.964;9.406;2023-03-23T03:52:55;11.80;99.90
13344;DHT22;6741;48.964;9.406;2023-03-23T03:55:24;11.80;99.90
13344;DHT22;6741;48.964;9.406;2023-03-23T03:57:53;11.70;99.90
13344;DHT22;6741;48.964;9.406;2023-03-23T04:00:20;11.60;99.90
13344;DHT22;6741;48.964;9.406;2023-03-23T04:02:49;11.60;99.90
13344;DHT22;6741;48.964;9.406;2023-03-23T04:05:20;11.60;99.90
13344;DHT22;6741;48.964;9.406;2023-03-23T04:07:47;11.60;99.90
13344;DHT22;6741;48.964;9.406;2023-03-23T04:10:15;11.60;99.90
13344;DHT22;6741;48.964;9.406;2023-03-23T04:12:43;11.70;99.90
13344;DHT22;6741;48.964;9.406;2023-03-23T04:15:10;11.80;99.90
13344;DHT22;6741;48.964;9.406;2023-03-23T04:17:37;11.90;99.90
13344;DHT22;6741;48.964;9.406;2023-03-23T04:20:08;12.10;99.90
13344;DHT22;6741;48.964;9.406;2023-03-23T04:22:40;12.50;99.90
13344;DHT22;6741;48.964;9.406;2023-03-23T04:25:10;12.80;99.90
13344;DHT22;6741;48.964;9.406;2023-03-23T04:27:38;12.90;99.90
13344;DHT22;6741;48.964;9.406;2023-03-23T04:30:07;13.10;99.90
13344;DHT22;6741;48.964;9.406;2023-03-23T04:32:34;13.10;99.90
13344;DHT22;6741;48.964;9.406;2023-03-23T04:35:02;13.10;99.90
13344;DHT22;6741;48.964;9.406;2023-03-23T04:37:29;13.00;99.90
13344;DHT22;6741;48.964;9.406;2023-03-23T04:39:59;13.10;99.90
13344;DHT22;6741;48.964;9.406;2023-03-23T04:42:28;13.20;99.90
13344;DHT22;6741;48.964;9.406;2023-03-23T04:44:55;13.20;99.90
13344;DHT22;6741;48.964;9.406;2023-03-23T04:47:25;13.10;99.90
13344;DHT22;6741;48.964;9.406;2023-03-23T04:49:55;13.00;99.90
13344;DHT22;6741;48.964;9.406;2023-03-23T04:52:23;13.10;99.90
13344;DHT22;6741;48.964;9.406;2023-03-23T04:54:50;13.10;99.90
13344;DHT22;6741;48.964;9.406;2023-03-23T04:57:17;13.10;99.90
13344;DHT22;6741;48.964;9.406;2023-03-23T04:59:44;13.10;99.90
13344;DHT22;6741;48.964;9.406;2023-03-23T05:02:11;13.10;99.90
13344;DHT22;6741;48.964;9.406;2023-03-23T05:04:40;13.10;99.90
13344;DHT22;6741;48.964;9.406;2023-03-23T05:07:07;13.10;99.90
13344;DHT22;6741;48.964;9.406;2023-03-23T05:09:34;13.20;99.90
13344;DHT22;6741;48.964;9.406;2023-03-23T05:12:05;13.30;99.90
13344;DHT22;6741;48.964;9.406;2023-03-23T05:14:32;13.40;99.90
13344;DHT22;6741;48.964;9.406;2023-03-23T05:17:00;13.40;99.90
13344;DHT22;6741;48.964;9.406;2023-03-23T05:19:27;13.40;99.90
13344;DHT22;6741;48.964;9.406;2023-03-23T05:21:57;13.40;99.90
13344;DHT22;6741;48.964;9.406;2023-03-23T05:24:29;13.30;99.90
13344;DHT22;6741;48.964;9.406;2023-03-23T05:26:58;13.40;99.90
13344;DHT22;6741;48.964;9.406;2023-03-23T05:29:25;13.30;99.90
13344;DHT22;6741;48.964;9.406;2023-03-23T05:31:52;13.30;99.90
13344;DHT22;6741;48.964;9.406;2023-03-23T05:34:21;13.30;99.90
13344;DHT22;6741;48.964;9.406;2023-03-23T05:36:49;13.30;99.90
13344;DHT22;6741;48.964;9.406;2023-03-23T05:39:20;13.20;99.90
13344;DHT22;6741;48.964;9.406;2023-03-23T05:41:47;13.30;99.90
13344;DHT22;6741;48.964;9.406;2023-03-23T05:44:14;13.30;99.90
13344;DHT22;6741;48.964;9.406;2023-03-23T05:46:40;13.40;99.90
13344;DHT22;6741;48.964;9.406;2023-03-23T05:49:08;13.60;99.90
13344;DHT22;6741;48.964;9.406;2023-03-23T05:51:35;13.60;99.90
13344;DHT22;6741;48.964;9.406;2023-03-23T05:54:02;13.60;99.90
13344;DHT22;6741;48.964;9.406;2023-03-23T05:56:31;13.60;99.90
13344;DHT22;6741;48.964;9.406;2023-03-23T05:58:58;13.50;99.90
13344;DHT22;6741;48.964;9.406;2023-03-23T06:01:25;13.50;99.90
13344;DHT22;6741;48.964;9.406;2023-03-23T06:03:53;13.50;99.90
13344;DHT22;6741;48.964;9.406;2023-03-23T06:06:24;13.50;99.90
13344;DHT22;6741;48.964;9.406;2023-03-23T06:08:52;13.50;99.90
13344;DHT22;6741;48.964;9.406;2023-03-23T06:11:19;13.50;99.90
13344;DHT22;6741;48.964;9.406;2023-03-23T06:13:47;13.50;99.90
13344;DHT22;6741;48.964;9.406;2023-03-23T06:16:14;13.40;99.90
13344;DHT22;6741;48.964;9.406;2023-03-23T06:18:42;13.40;99.90
13344;DHT22;6741;48.964;9.406;2023-03-23T06:21:09;13.40;99.90
13344;DHT22;6741;48.964;9.406;2023-03-23T06:23:37;13.40;99.90
13344;DHT22;6741;48.964;9.406;2023-03-23T06:26:06;13.40;99.90
13344;DHT22;6741;48.964;9.406;2023-03-23T06:28:33;13.40;99.90
13344;DHT22;6741;48.964;9.406;2023-03-23T06:31:03;13.40;99.90
13344;DHT22;6741;48.964;9.406;2023-03-23T06:33:32;13.40;99.90
13344;DHT22;6741;48.964;9.406;2023-03-23T06:35:59;13.40;99.90
13344;DHT22;6741;48.964;9.406;2023-03-23T06:38:26;13.40;99.90
13344;DHT22;6741;48.964;9.406;2023-03-23T06:40:54;13.40;99.90
13344;DHT22;6741;48.964;9.406;2023-03-23T06:43:23;13.40;99.90
13344;DHT22;6741;48.964;9.406;2023-03-23T06:45:50;13.50;99.90
13344;DHT22;6741;48.964;9.406;2023-03-23T06:48:19;13.40;99.90
13344;DHT22;6741;48.964;9.406;2023-03-23T06:50:46;13.40;99.90
13344;DHT22;6741;48.964;9.406;2023-03-23T06:53:13;13.40;99.90
13344;DHT22;6741;48.964;9.406;2023-03-23T06:55:43;13.50;99.90
13344;DHT22;6741;48.964;9.406;2023-03-23T06:58:10;13.30;99.90
13344;DHT22;6741;48.964;9.406;2023-03-23T07:00:37;13.40;99.90
13344;DHT22;6741;48.964;9.406;2023-03-23T07:03:06;13.40;99.90
13344;DHT22;6741;48.964;9.406;2023-03-23T07:05:35;13.50;99.90
13344;DHT22;6741;48.964;9.406;2023-03-23T07:08:03;13.70;99.90
13344;DHT22;6741;48.964;9.406;2023-03-23T07:10:30;13.80;99.90
13344;DHT22;6741;48.964;9.406;2023-03-23T07:12:57;13.80;99.90
13344;DHT22;6741;48.964;9.406;2023-03-23T07:15:25;13.80;99.90
13344;DHT22;6741;48.964;9.406;2023-03-23T07:17:52;13.90;99.90
13344;DHT22;6741;48.964;9.406;2023-03-23T07:20:19;13.80;99.90
13344;DHT22;6741;48.964;9.406;2023-03-23T07:22:48;13.60;99.90
13344;DHT22;6741;48.964;9.406;2023-03-23T07:25:15;13.50;99.90
13344;DHT22;6741;48.964;9.406;2023-03-23T07:27:44;13.40;99.90
13344;DHT22;6741;48.964;9.406;2023-03-23T07:30:12;13.40;99.90
13344;DHT22;6741;48.964;9.406;2023-03-23T07:32:40;13.40;99.90
13344;DHT22;6741;48.964;9.406;2023-03-23T07:35:07;13.40;99.90
13344;DHT22;6741;48.964;9.406;2023-03-23T07:37:35;13.40;99.90
13344;DHT22;6741;48.964;9.406;2023-03-23T07:40:04;13.40;99.90
13344;DHT22;6741;48.964;9.406;2023-03-23T07:42:40;13.40;99.90
13344;DHT22;6741;48.964;9.406;2023-03-23T07:45:08;13.40;99.90
13344;DHT22;6741;48.964;9.406;2023-03-23T07:47:35;13.30;99.90
13344;DHT22;6741;48.964;9.406;2023-03-23T07:50:02;13.40;99.90
13344;DHT22;6741;48.964;9.406;2023-03-23T07:52:29;13.40;99.90
13344;DHT22;6741;48.964;9.406;2023-03-23T07:54:56;13.40;99.90
13344;DHT22;6741;48.964;9.406;2023-03-23T07:57:25;13.40;99.90
13344;DHT22;6741;48.964;9.406;2023-03-23T07:59:52;13.50;99.90
13344;DHT22;6741;48.964;9.406;2023-03-23T08:02:18;13.60;99.90
13344;DHT22;6741;48.964;9.406;2023-03-23T08:04:45;13.70;99.90
13344;DHT22;6741;48.964;9.406;2023-03-23T08:07:13;13.70;99.90
13344;DHT22;6741;48.964;9.406;2023-03-23T08:09:41;14.00;99.90
13344;DHT22;6741;48.964;9.406;2023-03-23T08:12:09;14.20;99.90
13344;DHT22;6741;48.964;9.406;2023-03-23T08:14:38;14.30;99.90
13344;DHT22;6741;48.964;9.406;2023-03-23T08:17:06;14.30;99.90
13344;DHT22;6741;48.964;9.406;2023-03-23T08:19:34;14.30;99.90
13344;DHT22;6741;48.964;9.406;2023-03-23T08:22:02;14.30;99.90
13344;DHT22;6741;48.964;9.406;2023-03-23T08:24:30;14.30;99.90
13344;DHT22;6741;48.964;9.406;2023-03-23T08:26:58;14.40;99.90
13344;DHT22;6741;48.964;9.406;2023-03-23T08:29:25;14.40;99.90
13344;DHT22;6741;48.964;9.406;2023-03-23T08:31:53;14.50;99.90
13344;DHT22;6741;48.964;9.406;2023-03-23T08:34:21;14.50;99.90
13344;DHT22;6741;48.964;9.406;2023-03-23T08:36:48;14.50;99.90
13344;DHT22;6741;48.964;9.406;2023-03-23T08:39:17;14.50;99.90
13344;DHT22;6741;48.964;9.406;2023-03-23T08:41:44;14.50;99.90
13344;DHT22;6741;48.964;9.406;2023-03-23T08:44:12;14.50;99.90
13344;DHT22;6741;48.964;9.406;2023-03-23T08:46:38;14.40;99.90
13344;DHT22;6741;48.964;9.406;2023-03-23T08:49:07;14.50;99.90
13344;DHT22;6741;48.964;9.406;2023-03-23T08:51:34;14.50;99.90
13344;DHT22;6741;48.964;9.406;2023-03-23T08:54:02;14.40;99.90
13344;DHT22;6741;48.964;9.406;2023-03-23T08:56:29;14.40;99.90
13344;DHT22;6741;48.964;9.406;2023-03-23T08:58:56;14.20;99.90
13344;DHT22;6741;48.964;9.406;2023-03-23T09:01:23;14.20;99.90
13344;DHT22;6741;48.964;9.406;2023-03-23T09:03:50;14.10;99.90
13344;DHT22;6741;48.964;9.406;2023-03-23T09:06:18;14.10;99.90
13344;DHT22;6741;48.964;9.406;2023-03-23T09:08:45;14.20;99.90
13344;DHT22;6741;48.964;9.406;2023-03-23T09:11:12;14.10;99.90
13344;DHT22;6741;48.964;9.406;2023-03-23T09:13:39;14.10;99.90
13344;DHT22;6741;48.964;9.406;2023-03-23T09:16:07;14.00;99.90
13344;DHT22;6741;48.964;9.406;2023-03-23T09:18:35;14.00;99.90
13344;DHT22;6741;48.964;9.406;2023-03-23T09:21:02;13.90;99.90
13344;DHT22;6741;48.964;9.406;2023-03-23T09:23:31;14.00;99.90
13344;DHT22;6741;48.964;9.406;2023-03-23T09:26:00;14.00;99.90
13344;DHT22;6741;48.964;9.406;2023-03-23T09:28:27;14.00;99.90
13344;DHT22;6741;48.964;9.406;2023-03-23T09:30:54;14.10;99.90
13344;DHT22;6741;48.964;9.406;2023-03-23T09:33:24;14.20;99.90
13344;DHT22;6741;48.964;9.406;2023-03-23T09:35:52;14.20;99.90
13344;DHT22;6741;48.964;9.406;2023-03-23T09:38:19;14.30;99.90
13344;DHT22;6741;48.964;9.406;2023-03-23T09:40:50;14.30;99.90
13344;DHT22;6741;48.964;9.406;2023-03-23T09:43:36;14.40;99.90
13344;DHT22;6741;48.964;9.406;2023-03-23T09:46:19;14.30;99.90
13344;DHT22;6741;48.964;9.406;2023-03-23T09:48:51;14.40;99.90
13344;DHT22;6741;48.964;9.406;2023-03-23T09:51:27;14.60;99.90
13344;DHT22;6741;48.964;9.406;2023-03-23T09:54:00;14.70;99.90
13344;DHT22;6741;48.964;9.406;2023-03-23T09:56:31;14.80;99.90
13344;DHT22;6741;48.964;9.406;2023-03-23T09:59:02;14.90;99.90
13344;DHT22;6741;48.964;9.406;2023-03-23T10:01:33;15.00;99.90
13344;DHT22;6741;48.964;9.406;2023-03-23T10:04:10;14.90;99.90
13344;DHT22;6741;48.964;9.406;2023-03-23T10:06:39;14.80;99.90
13344;DHT22;6741;48.964;9.406;2023-03-23T10:09:08;14.70;99.90
13344;DHT22;6741;48.964;9.406;2023-03-23T10:11:46;14.60;99.90
13344;DHT22;6741;48.964;9.406;2023-03-23T10:14:32;14.70;99.90
13344;DHT22;6741;48.964;9.406;2023-03-23T10:17:12;14.50;99.90
13344;DHT22;6741;48.964;9.406;2023-03-23T10:19:46;14.40;99.90
13344;DHT22;6741;48.964;9.406;2023-03-23T10:22:17;14.30;99.90
13344;DHT22;6741;48.964;9.406;2023-03-23T10:24:50;14.20;99.90
13344;DHT22;6741;48.964;9.406;2023-03-23T10:27:26;14.20;99.90
13344;DHT22;6741;48.964;9.406;2023-03-23T10:29:57;14.10;99.90
13344;DHT22;6741;48.964;9.406;2023-03-23T10:32:40;14.00;99.90
13344;DHT22;6741;48.964;9.406;2023-03-23T10:35:11;14.00;99.90
13344;DHT22;6741;48.964;9.406;2023-03-23T10:37:46;14.10;99.90
13344;DHT22;6741;48.964;9.406;2023-03-23T10:40:16;14.10;99.90
13344;DHT22;6741;48.964;9.406;2023-03-23T10:42:46;14.20;99.90
13344;DHT22;6741;48.964;9.406;2023-03-23T10:45:17;14.30;99.90
13344;DHT22;6741;48.964;9.406;2023-03-23T10:47:51;14.50;99.90
13344;DHT22;6741;48.964;9.406;2023-03-23T10:50:24;14.30;99.90
13344;DHT22;6741;48.964;9.406;2023-03-23T10:52:52;14.40;99.90
13344;DHT22;6741;48.964;9.406;2023-03-23T10:55:22;14.80;99.90
13344;DHT22;6741;48.964;9.406;2023-03-23T10:58:01;14.80;99.90
13344;DHT22;6741;48.964;9.406;2023-03-23T11:00:30;14.90;99.90
13344;DHT22;6741;48.964;9.406;2023-03-23T11:03:00;14.80;99.90
13344;DHT22;6741;48.964;9.406;2023-03-23T11:05:34;14.90;99.90
13344;DHT22;6741;48.964;9.406;2023-03-23T11:08:01;14.90;99.90
13344;DHT22;6741;48.964;9.406;2023-03-23T11:10:35;15.10;99.90
13344;DHT22;6741;48.964;9.406;2023-03-23T11:13:04;15.00;99.90
13344;DHT22;6741;48.964;9.406;2023-03-23T11:15:37;15.00;99.90
13344;DHT22;6741;48.964;9.406;2023-03-23T11:18:09;14.80;99.90
13344;DHT22;6741;48.964;9.406;2023-03-23T11:20:39;14.80;99.90
13344;DHT22;6741;48.964;9.406;2023-03-23T11:23:21;14.70;99.90
13344;DHT22;6741;48.964;9.406;2023-03-23T11:25:58;14.60;99.90
13344;DHT22;6741;48.964;9.406;2023-03-23T11:28:31;14.40;99.90
13344;DHT22;6741;48.964;9.406;2023-03-23T11:31:00;14.50;99.90
13344;DHT22;6741;48.964;9.406;2023-03-23T11:33:35;14.20;99.90
13344;DHT22;6741;48.964;9.406;2023-03-23T11:36:03;14.20;99.90
13344;DHT22;6741;48.964;9.406;2023-03-23T11:38:30;14.30;99.90
13344;DHT22;6741;48.964;9.406;2023-03-23T11:40:59;14.30;99.90
13344;DHT22;6741;48.964;9.406;2023-03-23T11:43:27;14.20;99.90
13344;DHT22;6741;48.964;9.406;2023-03-23T11:46:02;14.10;99.90
13344;DHT22;6741;48.964;9.406;2023-03-23T11:48:35;14.20;99.90
13344;DHT22;6741;48.964;9.406;2023-03-23T11:51:08;14.30;99.90
13344;DHT22;6741;48.964;9.406;2023-03-23T11:53:48;14.40;99.90
13344;DHT22;6741;48.964;9.406;2023-03-23T11:56:23;14.60;99.90
13344;DHT22;6741;48.964;9.406;2023-03-23T11:58:53;14.80;99.90
13344;DHT22;6741;48.964;9.406;2023-03-23T12:01:38;14.80;99.90
13344;DHT22;6741;48.964;9.406;2023-03-23T12:04:40;14.80;99.90
13344;DHT22;6741;48.964;9.406;2023-03-23T12:07:23;14.80;99.90
13344;DHT22;6741;48.964;9.406;2023-03-23T12:09:58;14.70;99.90
13344;DHT22;6741;48.964;9.406;2023-03-23T12:12:36;14.80;99.90
13344;DHT22;6741;48.964;9.406;2023-03-23T12:15:17;14.70;99.90
13344;DHT22;6741;48.964;9.406;2023-03-23T12:17:53;14.60;99.90
13344;DHT22;6741;48.964;9.406;2023-03-23T12:20:30;14.50;99.90
13344;DHT22;6741;48.964;9.406;2023-03-23T12:23:20;14.60;99.90
13344;DHT22;6741;48.964;9.406;2023-03-23T12:26:15;14.40;99.90
13344;DHT22;6741;48.964;9.406;2023-03-23T12:29:14;14.70;99.90
13344;DHT22;6741;48.964;9.406;2023-03-23T12:31:53;14.70;99.90
13344;DHT22;6741;48.964;9.406;2023-03-23T12:34:30;14.80;99.90
13344;DHT22;6741;48.964;9.406;2023-03-23T12:37:14;14.70;99.90
13344;DHT22;6741;48.964;9.406;2023-03-23T12:40:07;14.70;99.90
13344;DHT22;6741;48.964;9.406;2023-03-23T12:42:46;14.80;99.90
13344;DHT22;6741;48.964;9.406;2023-03-23T12:45:22;14.90;99.90
13344;DHT22;6741;48.964;9.406;2023-03-23T12:47:55;15.10;99.90
13344;DHT22;6741;48.964;9.406;2023-03-23T12:50:28;15.10;99.90
13344;DHT22;6741;48.964;9.406;2023-03-23T12:53:00;15.10;99.90
13344;DHT22;6741;48.964;9.406;2023-03-23T12:55:34;15.30;99.90
13344;DHT22;6741;48.964;9.406;2023-03-23T12:58:05;15.30;99.90
13344;DHT22;6741;48.964;9.406;2023-03-23T13:00:46;15.00;99.90
13344;DHT22;6741;48.964;9.406;2023-03-23T13:03:20;15.00;99.90
13344;DHT22;6741;48.964;9.406;2023-03-23T13:05:52;15.10;99.90
13344;DHT22;6741;48.964;9.406;2023-03-23T13:08:24;15.10;99.90
13344;DHT22;6741;48.964;9.406;2023-03-23T13:10:55;15.20;99.90
13344;DHT22;6741;48.964;9.406;2023-03-23T13:13:39;15.30;99.90
13344;DHT22;6741;48.964;9.406;2023-03-23T13:16:11;15.20;99.90
13344;DHT22;6741;48.964;9.406;2023-03-23T13:18:49;15.20;99.90
13344;DHT22;6741;48.964;9.406;2023-03-23T13:21:20;15.10;99.90
13344;DHT22;6741;48.964;9.406;2023-03-23T13:23:53;15.30;99.90
13344;DHT22;6741;48.964;9.406;2023-03-23T13:26:22;15.30;99.90
13344;DHT22;6741;48.964;9.406;2023-03-23T13:28:56;15.20;99.90
13344;DHT22;6741;48.964;9.406;2023-03-23T13:31:26;15.40;99.90
13344;DHT22;6741;48.964;9.406;2023-03-23T13:34:03;15.40;99.90
13344;DHT22;6741;48.964;9.406;2023-03-23T13:36:35;15.30;99.90
13344;DHT22;6741;48.964;9.406;2023-03-23T13:39:04;15.40;99.90
13344;DHT22;6741;48.964;9.406;2023-03-23T13:41:33;15.30;99.90
13344;DHT22;6741;48.964;9.406;2023-03-23T13:44:21;15.40;99.90
13344;DHT22;6741;48.964;9.406;2023-03-23T13:46:57;15.40;99.90
13344;DHT22;6741;48.964;9.406;2023-03-23T13:49:26;15.40;99.90
13344;DHT22;6741;48.964;9.406;2023-03-23T13:52:00;15.30;99.90
13344;DHT22;6741;48.964;9.406;2023-03-23T13:54:38;15.20;99.90
13344;DHT22;6741;48.964;9.406;2023-03-23T13:57:24;15.20;99.90
13344;DHT22;6741;48.964;9.406;2023-03-23T13:59:57;15.10;99.90
13344;DHT22;6741;48.964;9.406;2023-03-23T14:02:35;15.00;99.90
13344;DHT22;6741;48.964;9.406;2023-03-23T14:05:31;15.00;99.90
13344;DHT22;6741;48.964;9.406;2023-03-23T14:08:00;15.10;99.90
13344;DHT22;6741;48.964;9.406;2023-03-23T14:10:34;15.20;99.90
13344;DHT22;6741;48.964;9.406;2023-03-23T14:13:03;15.20;99.90
13344;DHT22;6741;48.964;9.406;2023-03-23T14:15:40;15.30;99.90
13344;DHT22;6741;48.964;9.406;2023-03-23T14:18:14;15.30;99.90
13344;DHT22;6741;48.964;9.406;2023-03-23T14:20:45;15.40;99.90
13344;DHT22;6741;48.964;9.406;2023-03-23T14:23:16;15.50;99.90
13344;DHT22;6741;48.964;9.406;2023-03-23T14:25:43;15.50;99.90
13344;DHT22;6741;48.964;9.406;2023-03-23T14:28:18;15.60;99.90
13344;DHT22;6741;48.964;9.406;2023-03-23T14:30:47;15.50;99.90
13344;DHT22;6741;48.964;9.406;2023-03-23T14:33:15;15.60;99.90
13344;DHT22;6741;48.964;9.406;2023-03-23T14:35:44;15.70;99.90
13344;DHT22;6741;48.964;9.406;2023-03-23T14:38:15;15.70;99.90
13344;DHT22;6741;48.964;9.406;2023-03-23T14:40:44;15.70;99.90
13344;DHT22;6741;48.964;9.406;2023-03-23T14:43:15;15.80;99.90
13344;DHT22;6741;48.964;9.406;2023-03-23T14:45:42;15.70;99.90
13344;DHT22;6741;48.964;9.406;2023-03-23T14:48:13;15.60;99.90
13344;DHT22;6741;48.964;9.406;2023-03-23T14:50:49;15.60;99.90
13344;DHT22;6741;48.964;9.406;2023-03-23T14:53:19;15.60;99.90
13344;DHT22;6741;48.964;9.406;2023-03-23T14:55:49;15.50;99.90
13344;DHT22;6741;48.964;9.406;2023-03-23T14:58:17;15.40;99.90
13344;DHT22;6741;48.964;9.406;2023-03-23T15:00:47;15.40;99.90
13344;DHT22;6741;48.964;9.406;2023-03-23T15:03:17;15.40;99.90
13344;DHT22;6741;48.964;9.406;2023-03-23T15:05:48;15.40;99.90
13344;DHT22;6741;48.964;9.406;2023-03-23T15:08:20;15.40;99.90
13344;DHT22;6741;48.964;9.406;2023-03-23T15:10:53;15.30;99.90
13344;DHT22;6741;48.964;9.406;2023-03-23T15:13:20;15.30;99.90
13344;DHT22;6741;48.964;9.406;2023-03-23T15:15:47;15.30;99.90
13344;DHT22;6741;48.964;9.406;2023-03-23T15:18:29;15.30;99.90
13344;DHT22;6741;48.964;9.406;2023-03-23T15:20:58;15.20;99.90
13344;DHT22;6741;48.964;9.406;2023-03-23T15:23:34;15.20;99.90
13344;DHT22;6741;48.964;9.406;2023-03-23T15:26:05;15.20;99.90
13344;DHT22;6741;48.964;9.406;2023-03-23T15:28:38;15.10;99.90
13344;DHT22;6741;48.964;9.406;2023-03-23T15:31:06;15.20;99.90
13344;DHT22;6741;48.964;9.406;2023-03-23T15:33:37;15.10;99.90
13344;DHT22;6741;48.964;9.406;2023-03-23T15:36:09;15.00;99.90
13344;DHT22;6741;48.964;9.406;2023-03-23T15:38:43;15.10;99.90
13344;DHT22;6741;48.964;9.406;2023-03-23T15:41:22;15.00;99.90
13344;DHT22;6741;48.964;9.406;2023-03-23T15:43:51;14.80;99.90
13344;DHT22;6741;48.964;9.406;2023-03-23T15:46:23;14.80;99.90
13344;DHT22;6741;48.964;9.406;2023-03-23T15:48:52;14.80;99.90
13344;DHT22;6741;48.964;9.406;2023-03-23T15:51:23;14.70;99.90
13344;DHT22;6741;48.964;9.406;2023-03-23T15:53:52;14.70;99.90
13344;DHT22;6741;48.964;9.406;2023-03-23T15:56:19;14.60;99.90
13344;DHT22;6741;48.964;9.406;2023-03-23T15:58:46;14.60;99.90
13344;DHT22;6741;48.964;9.406;2023-03-23T16:01:18;14.60;99.90
13344;DHT22;6741;48.964;9.406;2023-03-23T16:03:48;14.60;99.90
13344;DHT22;6741;48.964;9.406;2023-03-23T16:06:19;14.50;99.90
13344;DHT22;6741;48.964;9.406;2023-03-23T16:08:47;14.50;99.90
13344;DHT22;6741;48.964;9.406;2023-03-23T16:11:16;14.50;99.90
13344;DHT22;6741;48.964;9.406;2023-03-23T16:13:44;14.50;99.90
13344;DHT22;6741;48.964;9.406;2023-03-23T16:16:14;14.50;99.90